sensor_id;sensor_type;location;lat;lon;timestamp;P1;durP1;ratioP1;P2;durP2;ratioP2
38113;SDS011;23926;53.222;6.354;2023-08-06T00:01:26;4.10;;;3.85;;
38113;SDS011;23926;53.222;6.354;2023-08-06T00:03:51;6.60;;;5.97;;
38113;SDS011;23926;53.222;6.354;2023-08-06T00:06:17;7.85;;;7.15;;
38113;SDS011;23926;53.222;6.354;2023-08-06T00:08:42;6.63;;;5.93;;
38113;SDS011;23926;53.222;6.354;2023-08-06T00:11:07;8.98;;;8.25;;
38113;SDS011;23926;53.222;6.354;2023-08-06T00:13:33;11.25;;;10.43;;
38113;SDS011;23926;53.222;6.354;2023-08-06T00:16:11;15.30;;;14.25;;
38113;SDS011;23926;53.222;6.354;2023-08-06T00:18:38;8.90;;;8.30;;
38113;SDS011;23926;53.222;6.354;2023-08-06T00:21:04;12.98;;;6.70;;
38113;SDS011;23926;53.222;6.354;2023-08-06T00:23:29;11.63;;;7.93;;
38113;SDS011;23926;53.222;6.354;2023-08-06T00:25:55;27.60;;;25.65;;
38113;SDS011;23926;53.222;6.354;2023-08-06T00:28:20;23.83;;;22.60;;
38113;SDS011;23926;53.222;6.354;2023-08-06T00:30:46;15.48;;;14.02;;
38113;SDS011;23926;53.222;6.354;2023-08-06T00:33:11;26.75;;;25.08;;
38113;SDS011;23926;53.222;6.354;2023-08-06T00:35:36;31.73;;;29.95;;
38113;SDS011;23926;53.222;6.354;2023-08-06T00:38:02;22.35;;;20.85;;
38113;SDS011;23926;53.222;6.354;2023-08-06T00:40:27;26.92;;;25.08;;
38113;SDS011;23926;53.222;6.354;2023-08-06T00:42:56;26.05;;;24.58;;
38113;SDS011;23926;53.222;6.354;2023-08-06T00:45:21;23.80;;;21.95;;
38113;SDS011;23926;53.222;6.354;2023-08-06T00:47:48;17.63;;;16.52;;
38113;SDS011;23926;53.222;6.354;2023-08-06T00:50:13;17.33;;;16.35;;
38113;SDS011;23926;53.222;6.354;2023-08-06T00:52:39;23.48;;;21.50;;
38113;SDS011;23926;53.222;6.354;2023-08-06T00:55:05;32.67;;;30.85;;
38113;SDS011;23926;53.222;6.354;2023-08-06T00:57:31;21.30;;;20.10;;
38113;SDS011;23926;53.222;6.354;2023-08-06T00:59:56;23.70;;;22.17;;
38113;SDS011;23926;53.222;6.354;2023-08-06T01:02:22;11.95;;;11.18;;
38113;SDS011;23926;53.222;6.354;2023-08-06T01:04:47;24.70;;;23.40;;
38113;SDS011;23926;53.222;6.354;2023-08-06T01:13:07;8.35;;;7.75;;
38113;SDS011;23926;53.222;6.354;2023-08-06T01:15:43;9.30;;;8.55;;
38113;SDS011;23926;53.222;6.354;2023-08-06T01:18:12;9.25;;;8.65;;
38113;SDS011;23926;53.222;6.354;2023-08-06T01:20:38;13.82;;;12.93;;
38113;SDS011;23926;53.222;6.354;2023-08-06T01:23:03;8.20;;;7.53;;
38113;SDS011;23926;53.222;6.354;2023-08-06T01:25:42;5.38;;;4.97;;
38113;SDS011;23926;53.222;6.354;2023-08-06T01:28:22;6.28;;;5.68;;
38113;SDS011;23926;53.222;6.354;2023-08-06T01:30:52;10.07;;;9.40;;
38113;SDS011;23926;53.222;6.354;2023-08-06T01:33:21;7.47;;;6.93;;
38113;SDS011;23926;53.222;6.354;2023-08-06T01:35:48;9.52;;;8.55;;
38113;SDS011;23926;53.222;6.354;2023-08-06T01:38:15;7.07;;;5.53;;
38113;SDS011;23926;53.222;6.354;2023-08-06T01:40:41;12.65;;;11.55;;
38113;SDS011;23926;53.222;6.354;2023-08-06T01:43:06;17.58;;;16.33;;
38113;SDS011;23926;53.222;6.354;2023-08-06T01:45:32;11.35;;;10.45;;
38113;SDS011;23926;53.222;6.354;2023-08-06T01:47:57;9.02;;;7.32;;
38113;SDS011;23926;53.222;6.354;2023-08-06T01:50:22;19.85;;;18.27;;
38113;SDS011;23926;53.222;6.354;2023-08-06T01:52:48;24.38;;;22.92;;
38113;SDS011;23926;53.222;6.354;2023-08-06T01:55:13;25.38;;;23.95;;
38113;SDS011;23926;53.222;6.354;2023-08-06T01:57:39;19.65;;;18.33;;
38113;SDS011;23926;53.222;6.354;2023-08-06T02:00:05;15.05;;;14.13;;
38113;SDS011;23926;53.222;6.354;2023-08-06T02:02:31;14.50;;;13.50;;
38113;SDS011;23926;53.222;6.354;2023-08-06T02:04:56;19.08;;;17.67;;
38113;SDS011;23926;53.222;6.354;2023-08-06T02:07:23;24.30;;;22.65;;
38113;SDS011;23926;53.222;6.354;2023-08-06T02:09:48;32.42;;;30.55;;
38113;SDS011;23926;53.222;6.354;2023-08-06T02:12:14;33.97;;;32.05;;
38113;SDS011;23926;53.222;6.354;2023-08-06T02:14:39;31.38;;;29.58;;
38113;SDS011;23926;53.222;6.354;2023-08-06T02:17:04;16.92;;;15.68;;
38113;SDS011;23926;53.222;6.354;2023-08-06T02:19:30;20.35;;;19.17;;
38113;SDS011;23926;53.222;6.354;2023-08-06T02:21:56;19.05;;;17.88;;
38113;SDS011;23926;53.222;6.354;2023-08-06T02:24:21;17.73;;;16.52;;
38113;SDS011;23926;53.222;6.354;2023-08-06T02:26:46;18.80;;;17.63;;
38113;SDS011;23926;53.222;6.354;2023-08-06T02:29:14;16.77;;;15.57;;
38113;SDS011;23926;53.222;6.354;2023-08-06T02:31:39;18.60;;;17.42;;
38113;SDS011;23926;53.222;6.354;2023-08-06T02:34:05;16.70;;;15.27;;
38113;SDS011;23926;53.222;6.354;2023-08-06T02:36:30;12.98;;;12.23;;
38113;SDS011;23926;53.222;6.354;2023-08-06T02:38:56;19.58;;;18.42;;
38113;SDS011;23926;53.222;6.354;2023-08-06T02:41:21;13.07;;;10.95;;
38113;SDS011;23926;53.222;6.354;2023-08-06T02:43:47;13.30;;;12.23;;
38113;SDS011;23926;53.222;6.354;2023-08-06T02:46:12;10.43;;;9.60;;
38113;SDS011;23926;53.222;6.354;2023-08-06T02:48:38;17.65;;;16.60;;
38113;SDS011;23926;53.222;6.354;2023-08-06T02:51:03;28.35;;;26.55;;
38113;SDS011;23926;53.222;6.354;2023-08-06T02:53:29;29.88;;;28.13;;
38113;SDS011;23926;53.222;6.354;2023-08-06T02:55:54;26.08;;;24.52;;
38113;SDS011;23926;53.222;6.354;2023-08-06T02:58:20;34.83;;;32.13;;
38113;SDS011;23926;53.222;6.354;2023-08-06T03:01:04;34.47;;;32.35;;
38113;SDS011;23926;53.222;6.354;2023-08-06T03:03:32;34.15;;;31.95;;
38113;SDS011;23926;53.222;6.354;2023-08-06T03:05:57;33.38;;;31.33;;
38113;SDS011;23926;53.222;6.354;2023-08-06T03:08:23;42.20;;;39.65;;
38113;SDS011;23926;53.222;6.354;2023-08-06T03:10:49;28.48;;;26.85;;
38113;SDS011;23926;53.222;6.354;2023-08-06T03:13:18;29.63;;;28.00;;
38113;SDS011;23926;53.222;6.354;2023-08-06T03:15:57;22.75;;;19.83;;
38113;SDS011;23926;53.222;6.354;2023-08-06T03:18:24;18.17;;;16.98;;
38113;SDS011;23926;53.222;6.354;2023-08-06T03:20:51;35.83;;;33.80;;
38113;SDS011;23926;53.222;6.354;2023-08-06T03:23:17;34.50;;;32.55;;
38113;SDS011;23926;53.222;6.354;2023-08-06T03:25:43;28.58;;;26.88;;
38113;SDS011;23926;53.222;6.354;2023-08-06T03:28:08;23.98;;;22.38;;
38113;SDS011;23926;53.222;6.354;2023-08-06T03:30:34;24.13;;;22.25;;
38113;SDS011;23926;53.222;6.354;2023-08-06T03:33:00;18.20;;;17.05;;
38113;SDS011;23926;53.222;6.354;2023-08-06T03:35:25;16.85;;;15.45;;
38113;SDS011;23926;53.222;6.354;2023-08-06T03:37:50;17.85;;;16.63;;
38113;SDS011;23926;53.222;6.354;2023-08-06T03:40:16;9.20;;;8.50;;
38113;SDS011;23926;53.222;6.354;2023-08-06T03:42:41;16.45;;;15.38;;
38113;SDS011;23926;53.222;6.354;2023-08-06T03:45:07;23.15;;;21.80;;
38113;SDS011;23926;53.222;6.354;2023-08-06T03:47:33;24.02;;;22.65;;
38113;SDS011;23926;53.222;6.354;2023-08-06T03:49:59;16.23;;;15.18;;
38113;SDS011;23926;53.222;6.354;2023-08-06T03:52:24;18.45;;;17.17;;
38113;SDS011;23926;53.222;6.354;2023-08-06T03:54:49;11.80;;;10.75;;
38113;SDS011;23926;53.222;6.354;2023-08-06T03:57:15;12.63;;;11.52;;
38113;SDS011;23926;53.222;6.354;2023-08-06T03:59:40;13.90;;;12.88;;
38113;SDS011;23926;53.222;6.354;2023-08-06T04:02:06;43.50;;;11.75;;
38113;SDS011;23926;53.222;6.354;2023-08-06T04:04:31;13.52;;;12.40;;
38113;SDS011;23926;53.222;6.354;2023-08-06T04:06:57;24.58;;;23.17;;
38113;SDS011;23926;53.222;6.354;2023-08-06T04:09:22;30.73;;;28.67;;
38113;SDS011;23926;53.222;6.354;2023-08-06T04:11:48;20.10;;;18.58;;
38113;SDS011;23926;53.222;6.354;2023-08-06T04:14:13;19.90;;;18.50;;
38113;SDS011;23926;53.222;6.354;2023-08-06T04:16:38;20.33;;;18.88;;
38113;SDS011;23926;53.222;6.354;2023-08-06T04:19:04;23.80;;;22.38;;
38113;SDS011;23926;53.222;6.354;2023-08-06T04:21:29;25.98;;;24.40;;
38113;SDS011;23926;53.222;6.354;2023-08-06T04:23:55;32.28;;;30.33;;
38113;SDS011;23926;53.222;6.354;2023-08-06T04:26:21;29.10;;;27.33;;
38113;SDS011;23926;53.222;6.354;2023-08-06T04:28:46;24.40;;;22.90;;
38113;SDS011;23926;53.222;6.354;2023-08-06T04:31:12;24.50;;;22.73;;
38113;SDS011;23926;53.222;6.354;2023-08-06T04:33:37;24.98;;;23.48;;
38113;SDS011;23926;53.222;6.354;2023-08-06T04:36:03;19.80;;;18.63;;
38113;SDS011;23926;53.222;6.354;2023-08-06T04:38:28;21.42;;;20.02;;
38113;SDS011;23926;53.222;6.354;2023-08-06T04:40:54;22.27;;;20.63;;
38113;SDS011;23926;53.222;6.354;2023-08-06T04:43:19;25.80;;;23.88;;
38113;SDS011;23926;53.222;6.354;2023-08-06T04:45:48;17.67;;;16.63;;
38113;SDS011;23926;53.222;6.354;2023-08-06T04:48:15;18.52;;;17.33;;
38113;SDS011;23926;53.222;6.354;2023-08-06T04:50:46;18.05;;;16.92;;
38113;SDS011;23926;53.222;6.354;2023-08-06T04:53:13;19.48;;;18.30;;
38113;SDS011;23926;53.222;6.354;2023-08-06T04:55:38;21.83;;;20.63;;
38113;SDS011;23926;53.222;6.354;2023-08-06T04:58:04;18.65;;;17.55;;
38113;SDS011;23926;53.222;6.354;2023-08-06T05:00:30;10.20;;;9.52;;
38113;SDS011;23926;53.222;6.354;2023-08-06T05:02:56;9.48;;;8.55;;
38113;SDS011;23926;53.222;6.354;2023-08-06T05:05:21;9.07;;;8.38;;
38113;SDS011;23926;53.222;6.354;2023-08-06T05:07:50;10.02;;;9.00;;
38113;SDS011;23926;53.222;6.354;2023-08-06T05:10:15;7.78;;;7.07;;
38113;SDS011;23926;53.222;6.354;2023-08-06T05:12:41;7.32;;;6.57;;
38113;SDS011;23926;53.222;6.354;2023-08-06T05:15:07;7.03;;;6.53;;
38113;SDS011;23926;53.222;6.354;2023-08-06T05:17:33;9.05;;;6.70;;
38113;SDS011;23926;53.222;6.354;2023-08-06T05:19:59;9.25;;;6.32;;
38113;SDS011;23926;53.222;6.354;2023-08-06T05:22:24;9.48;;;5.85;;
38113;SDS011;23926;53.222;6.354;2023-08-06T05:24:50;7.35;;;6.65;;
38113;SDS011;23926;53.222;6.354;2023-08-06T05:27:15;8.07;;;5.97;;
38113;SDS011;23926;53.222;6.354;2023-08-06T05:29:43;6.85;;;6.30;;
38113;SDS011;23926;53.222;6.354;2023-08-06T05:32:09;7.40;;;6.68;;
38113;SDS011;23926;53.222;6.354;2023-08-06T05:34:35;9.13;;;6.35;;
38113;SDS011;23926;53.222;6.354;2023-08-06T05:37:00;7.60;;;6.70;;
38113;SDS011;23926;53.222;6.354;2023-08-06T05:39:26;6.20;;;5.43;;
38113;SDS011;23926;53.222;6.354;2023-08-06T05:41:51;6.07;;;5.43;;
38113;SDS011;23926;53.222;6.354;2023-08-06T05:44:17;5.82;;;5.20;;
38113;SDS011;23926;53.222;6.354;2023-08-06T05:46:43;7.25;;;6.60;;
38113;SDS011;23926;53.222;6.354;2023-08-06T05:49:08;6.85;;;6.25;;
38113;SDS011;23926;53.222;6.354;2023-08-06T05:51:33;6.68;;;6.00;;
38113;SDS011;23926;53.222;6.354;2023-08-06T05:53:59;8.07;;;7.43;;
38113;SDS011;23926;53.222;6.354;2023-08-06T05:56:24;6.47;;;5.97;;
38113;SDS011;23926;53.222;6.354;2023-08-06T05:58:50;9.48;;;7.18;;
38113;SDS011;23926;53.222;6.354;2023-08-06T06:01:18;7.75;;;7.05;;
38113;SDS011;23926;53.222;6.354;2023-08-06T06:03:43;7.97;;;7.18;;
38113;SDS011;23926;53.222;6.354;2023-08-06T06:06:09;7.07;;;6.38;;
38113;SDS011;23926;53.222;6.354;2023-08-06T06:08:34;7.40;;;6.80;;
38113;SDS011;23926;53.222;6.354;2023-08-06T06:11:00;6.88;;;5.95;;
38113;SDS011;23926;53.222;6.354;2023-08-06T06:13:25;7.35;;;6.07;;
38113;SDS011;23926;53.222;6.354;2023-08-06T06:15:53;5.25;;;4.85;;
38113;SDS011;23926;53.222;6.354;2023-08-06T06:18:20;7.47;;;6.65;;
38113;SDS011;23926;53.222;6.354;2023-08-06T06:20:46;6.88;;;6.28;;
38113;SDS011;23926;53.222;6.354;2023-08-06T06:23:11;8.88;;;6.40;;
38113;SDS011;23926;53.222;6.354;2023-08-06T06:25:41;7.05;;;5.22;;
38113;SDS011;23926;53.222;6.354;2023-08-06T06:28:07;7.38;;;5.82;;
38113;SDS011;23926;53.222;6.354;2023-08-06T06:30:32;5.43;;;4.93;;
38113;SDS011;23926;53.222;6.354;2023-08-06T06:32:58;8.45;;;5.70;;
38113;SDS011;23926;53.222;6.354;2023-08-06T06:35:23;5.55;;;5.05;;
38113;SDS011;23926;53.222;6.354;2023-08-06T06:37:49;9.32;;;6.40;;
38113;SDS011;23926;53.222;6.354;2023-08-06T06:40:14;11.05;;;6.20;;
38113;SDS011;23926;53.222;6.354;2023-08-06T06:42:40;8.20;;;6.15;;
38113;SDS011;23926;53.222;6.354;2023-08-06T06:45:05;6.93;;;6.15;;
38113;SDS011;23926;53.222;6.354;2023-08-06T06:47:31;4.85;;;4.47;;
38113;SDS011;23926;53.222;6.354;2023-08-06T06:49:57;5.38;;;4.97;;
38113;SDS011;23926;53.222;6.354;2023-08-06T06:52:22;8.95;;;5.13;;
38113;SDS011;23926;53.222;6.354;2023-08-06T06:54:47;5.90;;;5.40;;
38113;SDS011;23926;53.222;6.354;2023-08-06T06:57:13;6.05;;;5.47;;
38113;SDS011;23926;53.222;6.354;2023-08-06T06:59:38;5.93;;;5.43;;
38113;SDS011;23926;53.222;6.354;2023-08-06T07:02:05;7.00;;;5.10;;
38113;SDS011;23926;53.222;6.354;2023-08-06T07:04:30;5.57;;;5.07;;
38113;SDS011;23926;53.222;6.354;2023-08-06T07:06:56;8.00;;;5.70;;
38113;SDS011;23926;53.222;6.354;2023-08-06T07:09:21;5.13;;;4.63;;
38113;SDS011;23926;53.222;6.354;2023-08-06T07:11:46;5.43;;;4.63;;
38113;SDS011;23926;53.222;6.354;2023-08-06T07:14:12;6.40;;;5.90;;
38113;SDS011;23926;53.222;6.354;2023-08-06T07:16:39;8.10;;;5.90;;
38113;SDS011;23926;53.222;6.354;2023-08-06T07:19:05;8.70;;;6.38;;
38113;SDS011;23926;53.222;6.354;2023-08-06T07:21:30;8.07;;;5.97;;
38113;SDS011;23926;53.222;6.354;2023-08-06T07:23:57;6.18;;;5.68;;
38113;SDS011;23926;53.222;6.354;2023-08-06T07:26:24;4.78;;;4.38;;
38113;SDS011;23926;53.222;6.354;2023-08-06T07:28:50;6.80;;;6.30;;
38113;SDS011;23926;53.222;6.354;2023-08-06T07:31:15;5.18;;;4.40;;
38113;SDS011;23926;53.222;6.354;2023-08-06T07:33:40;4.72;;;4.32;;
38113;SDS011;23926;53.222;6.354;2023-08-06T07:36:10;5.00;;;4.60;;
38113;SDS011;23926;53.222;6.354;2023-08-06T07:38:36;5.35;;;4.85;;
38113;SDS011;23926;53.222;6.354;2023-08-06T07:41:02;5.00;;;4.38;;
38113;SDS011;23926;53.222;6.354;2023-08-06T07:43:28;3.78;;;3.38;;
38113;SDS011;23926;53.222;6.354;2023-08-06T07:45:53;4.05;;;3.65;;
38113;SDS011;23926;53.222;6.354;2023-08-06T07:48:18;4.05;;;3.58;;
38113;SDS011;23926;53.222;6.354;2023-08-06T07:50:44;4.22;;;3.83;;
38113;SDS011;23926;53.222;6.354;2023-08-06T07:53:15;5.00;;;3.45;;
38113;SDS011;23926;53.222;6.354;2023-08-06T07:55:40;3.83;;;3.42;;
38113;SDS011;23926;53.222;6.354;2023-08-06T07:58:06;4.35;;;3.95;;
38113;SDS011;23926;53.222;6.354;2023-08-06T08:00:31;3.90;;;3.53;;
38113;SDS011;23926;53.222;6.354;2023-08-06T08:02:57;4.05;;;3.63;;
38113;SDS011;23926;53.222;6.354;2023-08-06T08:05:22;3.25;;;2.88;;
38113;SDS011;23926;53.222;6.354;2023-08-06T08:07:47;5.45;;;3.33;;
38113;SDS011;23926;53.222;6.354;2023-08-06T08:10:13;3.65;;;3.35;;
38113;SDS011;23926;53.222;6.354;2023-08-06T08:12:38;3.58;;;3.30;;
38113;SDS011;23926;53.222;6.354;2023-08-06T08:15:04;4.25;;;3.72;;
38113;SDS011;23926;53.222;6.354;2023-08-06T08:17:30;3.88;;;3.58;;
38113;SDS011;23926;53.222;6.354;2023-08-06T08:19:55;3.97;;;3.67;;
38113;SDS011;23926;53.222;6.354;2023-08-06T08:22:21;2.70;;;2.50;;
38113;SDS011;23926;53.222;6.354;2023-08-06T08:24:46;4.57;;;3.58;;
38113;SDS011;23926;53.222;6.354;2023-08-06T08:27:11;4.35;;;3.35;;
38113;SDS011;23926;53.222;6.354;2023-08-06T08:29:37;2.80;;;2.60;;
38113;SDS011;23926;53.222;6.354;2023-08-06T08:32:02;3.80;;;3.38;;
38113;SDS011;23926;53.222;6.354;2023-08-06T08:34:28;4.18;;;3.33;;
38113;SDS011;23926;53.222;6.354;2023-08-06T08:36:53;2.75;;;2.55;;
38113;SDS011;23926;53.222;6.354;2023-08-06T08:39:19;3.88;;;2.95;;
38113;SDS011;23926;53.222;6.354;2023-08-06T08:41:44;4.40;;;3.08;;
38113;SDS011;23926;53.222;6.354;2023-08-06T08:44:10;2.95;;;2.75;;
38113;SDS011;23926;53.222;6.354;2023-08-06T08:46:36;3.00;;;2.80;;
38113;SDS011;23926;53.222;6.354;2023-08-06T08:49:03;2.60;;;2.40;;
38113;SDS011;23926;53.222;6.354;2023-08-06T08:51:28;6.47;;;2.28;;
38113;SDS011;23926;53.222;6.354;2023-08-06T08:53:55;2.20;;;2.10;;
38113;SDS011;23926;53.222;6.354;2023-08-06T08:56:22;3.58;;;2.13;;
38113;SDS011;23926;53.222;6.354;2023-08-06T08:58:47;3.10;;;2.65;;
38113;SDS011;23926;53.222;6.354;2023-08-06T09:01:14;2.63;;;2.42;;
38113;SDS011;23926;53.222;6.354;2023-08-06T09:03:40;2.33;;;2.20;;
38113;SDS011;23926;53.222;6.354;2023-08-06T09:06:07;2.22;;;2.03;;
38113;SDS011;23926;53.222;6.354;2023-08-06T09:08:37;2.05;;;1.90;;
38113;SDS011;23926;53.222;6.354;2023-08-06T09:11:08;2.78;;;2.30;;
38113;SDS011;23926;53.222;6.354;2023-08-06T09:13:36;2.50;;;2.33;;
38113;SDS011;23926;53.222;6.354;2023-08-06T09:16:03;2.72;;;2.53;;
38113;SDS011;23926;53.222;6.354;2023-08-06T09:18:29;2.40;;;2.20;;
38113;SDS011;23926;53.222;6.354;2023-08-06T09:20:55;2.63;;;2.40;;
38113;SDS011;23926;53.222;6.354;2023-08-06T09:23:26;2.63;;;2.38;;
38113;SDS011;23926;53.222;6.354;2023-08-06T09:25:54;2.30;;;2.10;;
38113;SDS011;23926;53.222;6.354;2023-08-06T09:28:20;2.30;;;2.10;;
38113;SDS011;23926;53.222;6.354;2023-08-06T09:30:46;1.70;;;1.60;;
38113;SDS011;23926;53.222;6.354;2023-08-06T09:33:14;1.52;;;1.42;;
38113;SDS011;23926;53.222;6.354;2023-08-06T09:35:43;1.42;;;1.33;;
38113;SDS011;23926;53.222;6.354;2023-08-06T09:38:09;1.92;;;1.83;;
38113;SDS011;23926;53.222;6.354;2023-08-06T09:40:35;1.45;;;1.35;;
38113;SDS011;23926;53.222;6.354;2023-08-06T09:43:01;1.42;;;1.33;;
38113;SDS011;23926;53.222;6.354;2023-08-06T09:45:34;2.53;;;1.67;;
38113;SDS011;23926;53.222;6.354;2023-08-06T09:48:07;1.70;;;1.60;;
38113;SDS011;23926;53.222;6.354;2023-08-06T09:50:35;2.90;;;1.60;;
38113;SDS011;23926;53.222;6.354;2023-08-06T09:53:02;1.58;;;1.48;;
38113;SDS011;23926;53.222;6.354;2023-08-06T09:55:28;2.53;;;1.75;;
38113;SDS011;23926;53.222;6.354;2023-08-06T09:57:54;2.58;;;2.38;;
38113;SDS011;23926;53.222;6.354;2023-08-06T10:00:20;4.75;;;2.28;;
38113;SDS011;23926;53.222;6.354;2023-08-06T10:02:47;1.88;;;1.77;;
38113;SDS011;23926;53.222;6.354;2023-08-06T10:05:14;1.85;;;1.65;;
38113;SDS011;23926;53.222;6.354;2023-08-06T10:07:40;2.92;;;1.88;;
38113;SDS011;23926;53.222;6.354;2023-08-06T10:10:08;2.47;;;1.95;;
38113;SDS011;23926;53.222;6.354;2023-08-06T10:12:45;2.35;;;2.22;;
38113;SDS011;23926;53.222;6.354;2023-08-06T10:15:14;1.80;;;1.70;;
38113;SDS011;23926;53.222;6.354;2023-08-06T10:17:42;1.98;;;1.42;;
38113;SDS011;23926;53.222;6.354;2023-08-06T10:20:09;1.80;;;1.70;;
38113;SDS011;23926;53.222;6.354;2023-08-06T10:22:35;2.42;;;2.03;;
38113;SDS011;23926;53.222;6.354;2023-08-06T10:25:01;22.75;;;2.22;;
38113;SDS011;23926;53.222;6.354;2023-08-06T10:30:22;3.05;;;1.60;;
38113;SDS011;23926;53.222;6.354;2023-08-06T10:32:49;1.70;;;1.60;;
38113;SDS011;23926;53.222;6.354;2023-08-06T10:35:36;1.90;;;1.77;;
38113;SDS011;23926;53.222;6.354;2023-08-06T10:38:16;1.63;;;1.30;;
38113;SDS011;23926;53.222;6.354;2023-08-06T10:45:53;1.38;;;1.27;;
38113;SDS011;23926;53.222;6.354;2023-08-06T10:48:40;1.30;;;1.20;;
38113;SDS011;23926;53.222;6.354;2023-08-06T10:51:10;2.13;;;1.95;;
38113;SDS011;23926;53.222;6.354;2023-08-06T10:53:37;2.20;;;1.80;;
38113;SDS011;23926;53.222;6.354;2023-08-06T10:56:16;2.45;;;1.73;;
38113;SDS011;23926;53.222;6.354;2023-08-06T10:58:43;1.40;;;1.30;;
38113;SDS011;23926;53.222;6.354;2023-08-06T11:01:10;1.58;;;1.33;;
38113;SDS011;23926;53.222;6.354;2023-08-06T11:03:36;2.30;;;1.40;;
38113;SDS011;23926;53.222;6.354;2023-08-06T11:06:03;1.88;;;1.77;;
38113;SDS011;23926;53.222;6.354;2023-08-06T11:08:32;1.63;;;1.52;;
38113;SDS011;23926;53.222;6.354;2023-08-06T11:11:09;1.30;;;1.20;;
38113;SDS011;23926;53.222;6.354;2023-08-06T11:13:38;1.30;;;1.20;;
38113;SDS011;23926;53.222;6.354;2023-08-06T11:16:05;1.45;;;1.35;;
38113;SDS011;23926;53.222;6.354;2023-08-06T11:18:31;3.97;;;1.77;;
38113;SDS011;23926;53.222;6.354;2023-08-06T11:20:58;1.60;;;1.50;;
38113;SDS011;23926;53.222;6.354;2023-08-06T11:23:26;1.80;;;1.70;;
38113;SDS011;23926;53.222;6.354;2023-08-06T11:25:53;2.03;;;1.83;;
38113;SDS011;23926;53.222;6.354;2023-08-06T11:28:19;1.27;;;1.20;;
38113;SDS011;23926;53.222;6.354;2023-08-06T11:30:46;2.10;;;1.90;;
38113;SDS011;23926;53.222;6.354;2023-08-06T11:33:12;1.45;;;1.30;;
38113;SDS011;23926;53.222;6.354;2023-08-06T11:35:37;1.73;;;1.48;;
38113;SDS011;23926;53.222;6.354;2023-08-06T11:38:04;1.90;;;1.80;;
38113;SDS011;23926;53.222;6.354;2023-08-06T11:40:30;2.35;;;2.15;;
38113;SDS011;23926;53.222;6.354;2023-08-06T11:42:57;1.58;;;1.45;;
38113;SDS011;23926;53.222;6.354;2023-08-06T11:45:23;2.35;;;1.73;;
38113;SDS011;23926;53.222;6.354;2023-08-06T11:47:50;7.40;;;1.73;;
38113;SDS011;23926;53.222;6.354;2023-08-06T11:50:23;1.65;;;1.55;;
38113;SDS011;23926;53.222;6.354;2023-08-06T11:52:52;1.80;;;1.43;;
38113;SDS011;23926;53.222;6.354;2023-08-06T11:55:22;1.83;;;1.60;;
38113;SDS011;23926;53.222;6.354;2023-08-06T11:57:48;1.90;;;1.75;;
38113;SDS011;23926;53.222;6.354;2023-08-06T12:00:14;3.67;;;1.85;;
38113;SDS011;23926;53.222;6.354;2023-08-06T12:02:40;1.45;;;1.35;;
38113;SDS011;23926;53.222;6.354;2023-08-06T12:05:19;3.47;;;2.08;;
38113;SDS011;23926;53.222;6.354;2023-08-06T12:07:52;1.42;;;1.33;;
38113;SDS011;23926;53.222;6.354;2023-08-06T12:10:20;1.83;;;1.42;;
38113;SDS011;23926;53.222;6.354;2023-08-06T12:12:47;1.38;;;1.27;;
38113;SDS011;23926;53.222;6.354;2023-08-06T12:15:12;1.88;;;1.67;;
38113;SDS011;23926;53.222;6.354;2023-08-06T12:17:38;1.70;;;1.60;;
38113;SDS011;23926;53.222;6.354;2023-08-06T12:20:04;2.25;;;1.80;;
38113;SDS011;23926;53.222;6.354;2023-08-06T12:22:31;1.90;;;1.80;;
38113;SDS011;23926;53.222;6.354;2023-08-06T12:25:03;1.50;;;1.40;;
38113;SDS011;23926;53.222;6.354;2023-08-06T12:27:36;1.50;;;1.40;;
38113;SDS011;23926;53.222;6.354;2023-08-06T12:30:02;1.50;;;1.40;;
38113;SDS011;23926;53.222;6.354;2023-08-06T12:32:29;1.58;;;1.48;;
38113;SDS011;23926;53.222;6.354;2023-08-06T12:34:54;1.42;;;1.30;;
38113;SDS011;23926;53.222;6.354;2023-08-06T12:37:20;2.10;;;1.90;;
38113;SDS011;23926;53.222;6.354;2023-08-06T12:39:46;1.45;;;1.35;;
38113;SDS011;23926;53.222;6.354;2023-08-06T12:42:11;1.10;;;1.10;;
38113;SDS011;23926;53.222;6.354;2023-08-06T12:44:37;1.83;;;1.73;;
38113;SDS011;23926;53.222;6.354;2023-08-06T12:47:02;2.00;;;1.80;;
38113;SDS011;23926;53.222;6.354;2023-08-06T12:49:28;1.73;;;1.63;;
38113;SDS011;23926;53.222;6.354;2023-08-06T12:51:58;2.00;;;1.88;;
38113;SDS011;23926;53.222;6.354;2023-08-06T12:54:24;1.35;;;1.30;;
38113;SDS011;23926;53.222;6.354;2023-08-06T12:56:50;1.23;;;1.13;;
38113;SDS011;23926;53.222;6.354;2023-08-06T12:59:16;1.83;;;1.48;;
38113;SDS011;23926;53.222;6.354;2023-08-06T13:01:42;1.50;;;1.40;;
38113;SDS011;23926;53.222;6.354;2023-08-06T13:04:08;1.58;;;1.48;;
38113;SDS011;23926;53.222;6.354;2023-08-06T13:06:33;1.83;;;1.73;;
38113;SDS011;23926;53.222;6.354;2023-08-06T13:09:06;1.50;;;1.40;;
38113;SDS011;23926;53.222;6.354;2023-08-06T13:11:33;1.67;;;1.33;;
38113;SDS011;23926;53.222;6.354;2023-08-06T13:14:03;2.17;;;1.63;;
38113;SDS011;23926;53.222;6.354;2023-08-06T13:16:34;1.58;;;1.48;;
38113;SDS011;23926;53.222;6.354;2023-08-06T13:19:04;1.55;;;1.45;;
38113;SDS011;23926;53.222;6.354;2023-08-06T13:24:15;1.95;;;1.80;;
38113;SDS011;23926;53.222;6.354;2023-08-06T13:26:40;1.17;;;1.17;;
38113;SDS011;23926;53.222;6.354;2023-08-06T13:29:05;2.58;;;1.75;;
38113;SDS011;23926;53.222;6.354;2023-08-06T13:31:32;1.55;;;1.45;;
38113;SDS011;23926;53.222;6.354;2023-08-06T13:33:58;1.85;;;1.65;;
38113;SDS011;23926;53.222;6.354;2023-08-06T13:36:24;1.40;;;1.30;;
38113;SDS011;23926;53.222;6.354;2023-08-06T13:38:50;1.65;;;1.55;;
38113;SDS011;23926;53.222;6.354;2023-08-06T13:41:16;1.55;;;1.45;;
38113;SDS011;23926;53.222;6.354;2023-08-06T13:43:42;1.63;;;1.52;;
38113;SDS011;23926;53.222;6.354;2023-08-06T13:46:09;1.80;;;1.70;;
38113;SDS011;23926;53.222;6.354;2023-08-06T13:48:38;1.02;;;1.02;;
38113;SDS011;23926;53.222;6.354;2023-08-06T13:51:04;5.55;;;1.20;;
38113;SDS011;23926;53.222;6.354;2023-08-06T13:53:29;4.50;;;1.65;;
38113;SDS011;23926;53.222;6.354;2023-08-06T13:55:55;1.85;;;1.75;;
38113;SDS011;23926;53.222;6.354;2023-08-06T13:58:22;1.35;;;1.30;;
38113;SDS011;23926;53.222;6.354;2023-08-06T14:00:48;1.60;;;1.50;;
38113;SDS011;23926;53.222;6.354;2023-08-06T14:03:13;1.02;;;1.02;;
38113;SDS011;23926;53.222;6.354;2023-08-06T14:05:38;1.63;;;1.48;;
38113;SDS011;23926;53.222;6.354;2023-08-06T14:08:04;1.83;;;1.63;;
38113;SDS011;23926;53.222;6.354;2023-08-06T14:10:30;1.65;;;1.55;;
38113;SDS011;23926;53.222;6.354;2023-08-06T14:12:55;2.35;;;1.98;;
38113;SDS011;23926;53.222;6.354;2023-08-06T14:15:21;1.52;;;1.42;;
38113;SDS011;23926;53.222;6.354;2023-08-06T14:17:46;1.88;;;1.75;;
38113;SDS011;23926;53.222;6.354;2023-08-06T14:20:12;3.03;;;1.50;;
38113;SDS011;23926;53.222;6.354;2023-08-06T14:22:37;1.25;;;1.20;;
38113;SDS011;23926;53.222;6.354;2023-08-06T14:25:03;1.40;;;1.30;;
38113;SDS011;23926;53.222;6.354;2023-08-06T14:27:29;1.33;;;1.23;;
38113;SDS011;23926;53.222;6.354;2023-08-06T14:29:55;2.13;;;1.92;;
38113;SDS011;23926;53.222;6.354;2023-08-06T14:32:20;1.63;;;1.52;;
38113;SDS011;23926;53.222;6.354;2023-08-06T14:34:46;1.75;;;1.65;;
38113;SDS011;23926;53.222;6.354;2023-08-06T14:37:12;1.70;;;1.60;;
38113;SDS011;23926;53.222;6.354;2023-08-06T14:39:37;1.60;;;1.50;;
38113;SDS011;23926;53.222;6.354;2023-08-06T14:42:05;7.65;;;1.73;;
38113;SDS011;23926;53.222;6.354;2023-08-06T14:44:31;1.75;;;1.65;;
38113;SDS011;23926;53.222;6.354;2023-08-06T14:46:57;1.58;;;1.38;;
38113;SDS011;23926;53.222;6.354;2023-08-06T14:49:22;1.88;;;1.42;;
38113;SDS011;23926;53.222;6.354;2023-08-06T14:51:48;1.52;;;1.42;;
38113;SDS011;23926;53.222;6.354;2023-08-06T14:54:14;1.50;;;1.40;;